Time;durP1;ratioP1;P1;durP2;ratioP2;P2;SDS_P1;SDS_P2;PMS_P1;PMS_P2;Temp;Humidity;BMP_temperature;BMP_pressure;BME280_temperature;BME280_humidity;BME280_pressure;Samples;Min_cycle;Max_cycle;Signal;HPM_P1;HPM_P2
2021/06/14 00:02:06;;;;;;;7.13;6.53;;;13.70;99.90;;;;;;5051869;28;20692;-76
2021/06/14 00:04:33;;;;;;;6.80;6.30;;;13.70;99.90;;;;;;5031572;28;20193;-75
2021/06/14 00:07:00;;;;;;;7.40;6.70;;;13.70;99.90;;;;;;5032448;28;20207;-76
2021/06/14 00:09:27;;;;;;;7.73;6.93;;;13.60;99.90;;;;;;5032995;28;20200;-76
2021/06/14 00:11:55;;;;;;;7.60;7.00;;;13.60;99.90;;;;;;5051404;28;20702;-75
2021/06/14 00:14:22;;;;;;;7.43;6.73;;;13.60;99.90;;;;;;5033526;28;20547;-75
2021/06/14 00:16:49;;;;;;;7.17;6.43;;;13.50;99.90;;;;;;5033396;28;20198;-74
2021/06/14 00:19:16;;;;;;;7.20;6.60;;;13.50;99.90;;;;;;5033666;28;20251;-75
2021/06/14 00:21:43;;;;;;;7.20;6.50;;;13.50;99.90;;;;;;5048461;28;20190;-75
2021/06/14 00:24:10;;;;;;;7.80;7.20;;;13.50;99.90;;;;;;5043196;28;20201;-74
2021/06/14 00:26:37;;;;;;;6.90;6.30;;;13.50;99.90;;;;;;5051278;28;20204;-75
2021/06/14 00:29:05;;;;;;;7.50;6.90;;;13.50;99.90;;;;;;5048779;28;20204;-75
2021/06/14 00:31:32;;;;;;;7.40;6.80;;;13.50;99.90;;;;;;5031729;28;20232;-75
2021/06/14 00:34:00;;;;;;;7.53;6.83;;;13.40;99.90;;;;;;5033586;28;20195;-75
2021/06/14 00:36:27;;;;;;;7.30;6.70;;;13.40;99.90;;;;;;5050847;28;20217;-73
2021/06/14 00:38:53;;;;;;;7.00;6.30;;;13.40;99.90;;;;;;5051367;28;20196;-75
2021/06/14 00:41:23;;;;;;;7.30;6.70;;;13.30;99.90;;;;;;5029404;28;20566;-75
2021/06/14 00:43:49;;;;;;;8.03;7.23;;;13.30;99.90;;;;;;5048497;28;20202;-76
2021/06/14 00:46:18;;;;;;;6.80;6.30;;;13.30;99.90;;;;;;5031387;28;20210;-75
2021/06/14 00:48:46;;;;;;;7.47;6.73;;;13.20;99.90;;;;;;5041712;28;20701;-75
2021/06/14 00:51:13;;;;;;;7.40;6.80;;;13.20;99.90;;;;;;5025028;28;20227;-75
2021/06/14 00:53:42;;;;;;;7.50;6.90;;;13.10;99.90;;;;;;5032137;28;20202;-75
2021/06/14 00:56:15;;;;;;;7.23;6.53;;;13.10;99.90;;;;;;5033446;28;20285;-75
2021/06/14 00:58:45;;;;;;;7.70;7.00;;;13.10;99.90;;;;;;5021916;28;20196;-75
2021/06/14 01:01:12;;;;;;;7.77;7.00;;;13.10;99.90;;;;;;5032807;28;20250;-75
2021/06/14 01:03:41;;;;;;;7.20;6.50;;;13.10;99.90;;;;;;5029928;28;20202;-75
2021/06/14 01:06:13;;;;;;;7.00;6.43;;;13.10;99.90;;;;;;5030733;28;20277;-75
2021/06/14 01:08:45;;;;;;;7.70;7.10;;;13.00;99.90;;;;;;5032547;28;20191;-75
2021/06/14 01:11:19;;;;;;;7.70;7.07;;;13.00;99.90;;;;;;5050767;28;20574;-75
2021/06/14 01:13:52;;;;;;;7.60;6.80;;;13.00;99.90;;;;;;5043324;28;20196;-75
2021/06/14 01:16:24;;;;;;;7.77;6.97;;;12.90;99.90;;;;;;5031284;28;20740;-75
2021/06/14 01:19:01;;;;;;;7.67;6.97;;;12.90;99.90;;;;;;5031884;28;20204;-75
2021/06/14 01:21:32;;;;;;;7.50;6.80;;;12.80;99.90;;;;;;5032736;28;20217;-75
2021/06/14 01:24:29;;;;;;;7.30;6.70;;;12.90;99.90;;;;;;5050988;28;20211;-75
2021/06/14 01:27:05;;;;;;;7.20;6.60;;;12.80;99.90;;;;;;5029898;28;20200;-75
2021/06/14 01:29:41;;;;;;;7.57;6.93;;;12.70;99.90;;;;;;5034752;28;20215;-75
2021/06/14 01:32:09;;;;;;;8.70;6.77;;;12.60;99.90;;;;;;5054563;28;20586;-75
2021/06/14 01:34:39;;;;;;;7.60;7.00;;;12.60;99.90;;;;;;5053873;28;20195;-75
2021/06/14 01:37:07;;;;;;;7.53;6.83;;;12.50;99.90;;;;;;5037225;28;20634;-75
2021/06/14 01:39:39;;;;;;;7.27;6.67;;;12.50;99.90;;;;;;5034863;28;20227;-75
2021/06/14 01:42:09;;;;;;;7.70;7.10;;;12.50;99.90;;;;;;5035902;28;20225;-75
2021/06/14 01:44:38;;;;;;;8.10;7.50;;;12.50;99.90;;;;;;5037076;28;20199;-75
2021/06/14 01:47:10;;;;;;;7.50;6.80;;;12.50;99.90;;;;;;5037417;28;20218;-75
2021/06/14 01:49:38;;;;;;;7.53;6.83;;;12.50;99.90;;;;;;5034101;28;20301;-75
2021/06/14 01:52:18;;;;;;;7.80;7.20;;;12.40;99.90;;;;;;5035875;28;20306;-75
2021/06/14 01:54:46;;;;;;;8.20;7.40;;;12.40;99.90;;;;;;5042203;28;20273;-74
2021/06/14 01:57:20;;;;;;;8.43;7.40;;;12.30;99.90;;;;;;5033129;28;20229;-75
2021/06/14 02:00:22;;;;;;;7.83;7.20;;;12.30;99.90;;;;;;5038601;28;20213;-74
2021/06/14 02:03:25;;;;;;;8.13;7.43;;;12.30;99.90;;;;;;4969072;28;20707;-75
2021/06/14 02:05:59;;;;;;;8.07;7.47;;;12.30;99.90;;;;;;5032103;28;20199;-74
2021/06/14 02:08:29;;;;;;;8.10;7.37;;;12.30;99.90;;;;;;5052306;28;20265;-75
2021/06/14 02:10:57;;;;;;;7.57;6.93;;;12.30;99.90;;;;;;5053144;28;20221;-75
2021/06/14 02:13:25;;;;;;;8.60;8.00;;;12.20;99.90;;;;;;5035120;28;20225;-74
2021/06/14 02:15:54;;;;;;;7.67;6.97;;;12.20;99.90;;;;;;5035137;28;20670;-75
2021/06/14 02:18:24;;;;;;;7.47;6.83;;;12.10;99.90;;;;;;5053686;28;20259;-75
2021/06/14 02:20:55;;;;;;;8.40;7.60;;;12.10;99.90;;;;;;5035723;28;20325;-75
2021/06/14 02:23:23;;;;;;;7.20;6.50;;;12.10;99.90;;;;;;5035552;28;20207;-74
2021/06/14 02:25:50;;;;;;;7.33;6.63;;;12.10;99.90;;;;;;5050782;28;20235;-75
2021/06/14 02:28:17;;;;;;;11.23;7.13;;;12.10;99.90;;;;;;5053798;28;20187;-73
2021/06/14 02:30:46;;;;;;;8.20;7.40;;;12.00;99.90;;;;;;5033452;28;20224;-75
2021/06/14 02:33:15;;;;;;;7.20;6.60;;;12.00;99.90;;;;;;5035446;28;20237;-76
2021/06/14 02:36:00;;;;;;;7.07;6.47;;;12.00;99.90;;;;;;5034079;28;20298;-75
2021/06/14 02:38:28;;;;;;;7.03;6.53;;;11.90;99.90;;;;;;5032422;28;20268;-74
2021/06/14 02:40:56;;;;;;;7.27;6.67;;;11.90;99.90;;;;;;5034620;28;20219;-75
2021/06/14 02:43:24;;;;;;;7.57;6.83;;;11.90;99.90;;;;;;5034984;28;20683;-74
2021/06/14 02:45:52;;;;;;;7.90;7.13;;;11.80;99.90;;;;;;5035554;28;20739;-75
2021/06/14 02:48:30;;;;;;;7.90;7.30;;;11.80;99.90;;;;;;5035672;28;20199;-73
2021/06/14 02:50:58;;;;;;;7.70;7.00;;;11.80;99.90;;;;;;5034731;28;20613;-75
2021/06/14 02:53:28;;;;;;;7.90;7.20;;;11.80;99.90;;;;;;5034604;28;20192;-75
2021/06/14 02:56:01;;;;;;;8.10;7.40;;;11.70;99.90;;;;;;5032562;28;20210;-75
2021/06/14 02:58:32;;;;;;;7.93;7.13;;;11.70;99.90;;;;;;5034018;28;20261;-75
2021/06/14 03:01:00;;;;;;;9.47;7.83;;;11.80;99.90;;;;;;5032754;28;20216;-75
2021/06/14 03:03:31;;;;;;;7.97;7.17;;;11.70;99.90;;;;;;5033701;28;20238;-75
2021/06/14 03:05:58;;;;;;;8.40;7.20;;;11.70;99.90;;;;;;5050477;28;20203;-75
2021/06/14 03:08:28;;;;;;;8.73;8.03;;;11.70;99.90;;;;;;5034847;28;20200;-75
2021/06/14 03:10:57;;;;;;;8.23;7.53;;;11.70;99.90;;;;;;5035115;28;20314;-76
2021/06/14 03:13:25;;;;;;;8.40;7.60;;;11.70;99.90;;;;;;5034718;28;20200;-77
2021/06/14 03:15:52;;;;;;;9.43;8.33;;;11.70;99.90;;;;;;5034363;28;20193;-76
2021/06/14 03:18:23;;;;;;;8.23;7.50;;;11.70;99.90;;;;;;5035473;28;20206;-75
2021/06/14 03:20:54;;;;;;;8.20;7.50;;;11.60;99.90;;;;;;5035564;28;20208;-76
2021/06/14 03:23:22;;;;;;;9.47;7.97;;;11.60;99.90;;;;;;5053773;28;20187;-75
2021/06/14 03:25:50;;;;;;;8.47;7.70;;;11.60;99.90;;;;;;5034069;28;20639;-75
2021/06/14 03:28:18;;;;;;;8.57;7.87;;;11.60;99.90;;;;;;5025299;28;20617;-74
2021/06/14 03:30:46;;;;;;;8.60;7.40;;;11.60;99.90;;;;;;5019331;28;20226;-73
2021/06/14 03:33:18;;;;;;;8.50;7.40;;;11.60;99.90;;;;;;5048754;28;20195;-73
2021/06/14 03:35:46;;;;;;;8.40;7.53;;;11.70;99.90;;;;;;5046933;28;20194;-73
2021/06/14 03:38:14;;;;;;;7.30;6.70;;;11.70;99.90;;;;;;5047574;28;20199;-72
2021/06/14 03:40:41;;;;;;;7.60;6.90;;;11.70;99.90;;;;;;5048132;28;20215;-73
2021/06/14 03:43:08;;;;;;;11.03;7.90;;;11.70;99.90;;;;;;5049478;28;20894;-73
2021/06/14 03:45:36;;;;;;;8.33;7.53;;;11.70;99.90;;;;;;5030723;28;20199;-73
2021/06/14 03:48:03;;;;;;;8.20;7.40;;;11.60;99.90;;;;;;5050811;28;20566;-73
2021/06/14 03:50:30;;;;;;;8.97;7.30;;;11.70;99.90;;;;;;5032753;28;20223;-74
2021/06/14 03:52:57;;;;;;;7.67;7.00;;;11.70;99.90;;;;;;5051854;28;20195;-73
2021/06/14 03:55:25;;;;;;;8.93;8.00;;;11.70;99.90;;;;;;5051353;28;20187;-73
2021/06/14 03:57:52;;;;;;;9.30;7.73;;;11.80;99.90;;;;;;5031915;28;20198;-73
2021/06/14 04:00:22;;;;;;;8.60;7.80;;;11.80;99.90;;;;;;5049409;28;20215;-74
2021/06/14 04:02:49;;;;;;;7.50;6.97;;;11.80;99.90;;;;;;5033000;28;20696;-73
2021/06/14 04:05:29;;;;;;;9.10;7.43;;;11.80;99.90;;;;;;5033886;28;20210;-74
2021/06/14 04:08:13;;;;;;;8.90;8.10;;;11.80;99.90;;;;;;5033866;28;20221;-73
2021/06/14 04:10:41;;;;;;;8.23;7.60;;;11.90;99.90;;;;;;5049439;28;20294;-73
2021/06/14 04:13:08;;;;;;;8.90;8.00;;;11.90;99.90;;;;;;5051694;28;20639;-74
2021/06/14 04:15:36;;;;;;;8.00;7.40;;;11.90;99.90;;;;;;5051448;28;20199;-73
2021/06/14 04:18:02;;;;;;;8.70;8.00;;;12.00;99.90;;;;;;5049631;28;20662;-74
2021/06/14 04:20:29;;;;;;;8.37;7.67;;;12.00;99.90;;;;;;5050810;28;20222;-74
2021/06/14 04:22:56;;;;;;;8.40;7.60;;;12.10;99.90;;;;;;5051502;28;20195;-73
2021/06/14 04:25:24;;;;;;;8.40;7.70;;;12.10;99.90;;;;;;5051405;28;20196;-73
2021/06/14 04:27:52;;;;;;;8.47;7.77;;;12.20;99.90;;;;;;5051534;28;20281;-73
2021/06/14 04:30:20;;;;;;;8.23;7.63;;;12.30;99.90;;;;;;5047800;28;20219;-73
2021/06/14 04:32:47;;;;;;;9.10;8.30;;;12.40;99.90;;;;;;5049392;28;20223;-74
2021/06/14 04:35:14;;;;;;;8.40;7.80;;;12.50;99.90;;;;;;5050828;28;20204;-74
2021/06/14 04:37:41;;;;;;;8.47;7.77;;;12.70;99.90;;;;;;5046748;28;20191;-74
2021/06/14 04:40:09;;;;;;;8.90;8.00;;;12.80;99.90;;;;;;5048196;28;20219;-73
2021/06/14 04:42:36;;;;;;;7.20;6.60;;;13.00;99.90;;;;;;5049270;28;20661;-74
2021/06/14 04:45:06;;;;;;;6.73;6.00;;;13.00;99.90;;;;;;5033434;28;20203;-74
2021/06/14 04:47:32;;;;;;;6.63;6.03;;;13.20;99.90;;;;;;5032530;28;20949;-73
2021/06/14 04:50:01;;;;;;;8.03;7.33;;;13.50;99.90;;;;;;5045619;28;20223;-74
2021/06/14 04:52:28;;;;;;;7.70;7.10;;;14.20;99.90;;;;;;5031054;28;20683;-74
2021/06/14 04:54:55;;;;;;;7.03;6.43;;;15.00;99.90;;;;;;5030209;28;20240;-74
2021/06/14 04:57:22;;;;;;;6.70;6.00;;;15.30;99.90;;;;;;5048601;28;20665;-73
2021/06/14 04:59:49;;;;;;;6.30;5.70;;;15.50;99.90;;;;;;5050225;28;20215;-74
2021/06/14 05:02:17;;;;;;;7.00;6.40;;;15.50;99.90;;;;;;5052373;28;20214;-74
2021/06/14 05:04:44;;;;;;;6.30;5.70;;;15.40;99.90;;;;;;5053135;28;20187;-74
2021/06/14 05:07:11;;;;;;;5.50;5.00;;;15.40;99.90;;;;;;5055078;28;20571;-74
2021/06/14 05:09:37;;;;;;;6.30;5.47;;;15.40;99.90;;;;;;5054869;28;20215;-74
2021/06/14 05:12:08;;;;;;;5.67;4.97;;;15.50;99.90;;;;;;5058406;22;20232;-79
2021/06/14 05:14:44;;;;;;;6.33;5.80;;;15.50;99.90;;;;;;5035254;28;20195;-79
2021/06/14 05:17:11;;;;;;;5.60;5.00;;;15.70;99.90;;;;;;5033797;28;20204;-79
2021/06/14 05:19:40;;;;;;;5.10;4.60;;;15.80;99.90;;;;;;5028762;28;20200;-79
2021/06/14 05:22:07;;;;;;;6.00;5.17;;;16.10;99.90;;;;;;5034437;28;20220;-79
2021/06/14 05:24:33;;;;;;;5.50;5.00;;;16.20;99.90;;;;;;5005166;28;20197;-79
2021/06/14 05:27:01;;;;;;;5.43;4.97;;;16.30;99.90;;;;;;5023981;28;20205;-79
2021/06/14 05:29:28;;;;;;;4.63;3.90;;;16.40;99.90;;;;;;5025901;28;20253;-79
2021/06/14 05:31:57;;;;;;;5.63;5.10;;;16.40;99.90;;;;;;4997948;28;20227;-79
2021/06/14 05:34:28;;;;;;;6.33;5.83;;;16.50;99.90;;;;;;5019887;28;20205;-79
2021/06/14 05:36:57;;;;;;;6.60;5.90;;;16.70;99.90;;;;;;5026822;28;20205;-80
2021/06/14 05:39:32;;;;;;;6.83;4.57;;;17.00;99.90;;;;;;5019502;28;20198;-81
2021/06/14 05:42:06;;;;;;;7.97;3.60;;;17.80;99.90;;;;;;5013142;28;20218;-80
2021/06/14 05:44:35;;;;;;;4.83;3.90;;;18.70;99.90;;;;;;5024447;28;20238;-80
2021/06/14 05:47:02;;;;;;;4.27;3.30;;;19.50;99.90;;;;;;5018931;28;20208;-80
2021/06/14 05:49:32;;;;;;;6.70;6.10;;;20.20;99.90;;;;;;5028010;28;20224;-80
2021/06/14 05:52:01;;;;;;;6.30;4.03;;;20.70;99.90;;;;;;5011765;28;20251;-80
2021/06/14 05:54:29;;;;;;;5.80;5.30;;;21.00;99.90;;;;;;5011605;28;20210;-80
2021/06/14 05:56:56;;;;;;;4.73;3.40;;;21.40;99.90;;;;;;5022586;28;20204;-80
2021/06/14 05:59:23;;;;;;;5.73;4.70;;;21.50;99.90;;;;;;5001874;28;20199;-80
2021/06/14 06:01:50;;;;;;;5.23;4.70;;;21.60;99.90;;;;;;5001661;28;20255;-80
2021/06/14 06:04:18;;;;;;;5.03;4.10;;;21.90;99.90;;;;;;5001901;28;20207;-80
2021/06/14 06:06:48;;;;;;;7.13;4.50;;;22.20;99.90;;;;;;4998554;28;20204;-81
2021/06/14 06:09:19;;;;;;;5.53;3.47;;;22.50;99.90;;;;;;5025170;28;20201;-81
2021/06/14 06:11:51;;;;;;;6.53;5.73;;;22.60;99.90;;;;;;5013442;28;20215;-80
2021/06/14 06:14:18;;;;;;;6.90;5.70;;;22.40;99.90;;;;;;5016003;28;20610;-80
2021/06/14 06:16:54;;;;;;;6.17;5.67;;;22.60;99.90;;;;;;4998031;28;20208;-80
2021/06/14 06:19:21;;;;;;;4.47;4.07;;;22.70;99.90;;;;;;5019264;28;20197;-81
2021/06/14 06:21:49;;;;;;;5.83;5.23;;;22.90;99.90;;;;;;5025949;28;20292;-80
2021/06/14 06:24:22;;;;;;;4.00;3.60;;;22.70;99.90;;;;;;5011409;28;20209;-80
2021/06/14 06:27:07;;;;;;;4.50;3.03;;;22.70;99.90;;;;;;5010599;28;20227;-80
2021/06/14 06:29:37;;;;;;;3.40;3.03;;;23.20;99.90;;;;;;5010101;28;20204;-81
2021/06/14 06:32:07;;;;;;;5.30;3.20;;;23.10;99.90;;;;;;5017763;28;20495;-80
2021/06/14 06:34:43;;;;;;;3.90;3.07;;;23.00;99.90;;;;;;5017810;28;20212;-80
2021/06/14 06:37:17;;;;;;;5.97;5.37;;;23.50;99.90;;;;;;5018147;28;20560;-81
2021/06/14 06:39:55;;;;;;;4.20;3.37;;;23.80;99.90;;;;;;5000033;28;20201;-81
2021/06/14 06:42:24;;;;;;;5.57;5.07;;;23.70;99.90;;;;;;5017673;28;20200;-81
2021/06/14 06:44:54;;;;;;;5.93;4.60;;;23.50;99.90;;;;;;4999180;28;20204;-80
2021/06/14 06:47:21;;;;;;;7.20;5.40;;;23.80;99.90;;;;;;5000042;28;20694;-80
2021/06/14 06:49:59;;;;;;;6.03;5.43;;;24.00;99.90;;;;;;5001933;28;20254;-80
2021/06/14 06:52:30;;;;;;;5.63;4.10;;;24.30;99.90;;;;;;5001697;28;20593;-80
2021/06/14 06:55:00;;;;;;;5.40;5.00;;;24.30;99.90;;;;;;5003940;28;20213;-80
2021/06/14 06:57:27;;;;;;;5.20;3.30;;;24.60;99.90;;;;;;5009739;28;20743;-80
2021/06/14 07:00:00;;;;;;;4.23;2.97;;;24.50;99.90;;;;;;5015893;28;20231;-80
2021/06/14 07:02:33;;;;;;;5.17;3.30;;;24.60;99.90;;;;;;5009914;28;20220;-80
2021/06/14 07:05:00;;;;;;;5.00;3.03;;;24.60;99.90;;;;;;5013754;28;20570;-80
2021/06/14 07:07:30;;;;;;;4.80;3.10;;;24.80;99.90;;;;;;5015927;28;20205;-80
2021/06/14 07:10:05;;;;;;;3.37;2.93;;;25.10;99.90;;;;;;5020283;28;20202;-81
2021/06/14 07:12:36;;;;;;;3.47;2.77;;;25.10;99.90;;;;;;5016603;28;20230;-82
2021/06/14 07:15:04;;;;;;;6.47;3.30;;;25.40;99.90;;;;;;5024249;28;20200;-81
2021/06/14 07:17:39;;;;;;;5.70;3.77;;;25.30;99.90;;;;;;5025505;28;20203;-80
2021/06/14 07:20:10;;;;;;;5.50;3.37;;;24.90;99.90;;;;;;5015466;28;20236;-80
2021/06/14 07:22:38;;;;;;;3.43;2.70;;;24.90;99.90;;;;;;5022504;28;20193;-80
2021/06/14 07:25:11;;;;;;;5.83;3.37;;;25.30;99.00;;;;;;5011533;28;20306;-80
2021/06/14 07:27:38;;;;;;;5.40;4.73;;;25.50;99.80;;;;;;5008128;28;20228;-81
2021/06/14 07:32:40;;;;;;;5.53;3.40;;;26.00;99.20;;;;;;5014256;28;20224;-81
2021/06/14 07:35:08;;;;;;;4.60;2.90;;;26.10;98.80;;;;;;4993353;28;20288;-81
2021/06/14 07:37:35;;;;;;;8.10;2.73;;;26.10;98.10;;;;;;5023850;28;20581;-80
2021/06/14 07:40:08;;;;;;;4.07;2.90;;;26.00;98.00;;;;;;5002152;28;20214;-81
2021/06/14 07:42:43;;;;;;;4.00;3.30;;;26.10;99.00;;;;;;4976244;28;20257;-81
2021/06/14 07:45:25;;;;;;;5.10;3.30;;;26.00;98.60;;;;;;4977300;28;20224;-80
2021/06/14 07:47:53;;;;;;;4.00;2.80;;;26.10;97.70;;;;;;4956611;28;20587;-81
2021/06/14 07:50:20;;;;;;;4.27;2.83;;;26.10;98.30;;;;;;4983892;28;20200;-81
2021/06/14 07:52:56;;;;;;;4.40;2.77;;;26.20;97.00;;;;;;4977162;28;20581;-82
2021/06/14 07:55:26;;;;;;;5.73;3.07;;;26.00;97.70;;;;;;4981061;28;20236;-81
2021/06/14 07:57:56;;;;;;;5.37;4.50;;;26.50;98.50;;;;;;4976307;28;20205;-81
2021/06/14 08:00:23;;;;;;;5.90;4.87;;;26.80;97.00;;;;;;4972640;28;20186;-81
2021/06/14 08:02:53;;;;;;;6.07;5.57;;;26.80;97.40;;;;;;4971948;28;20186;-81
2021/06/14 08:05:20;;;;;;;6.23;5.63;;;27.00;97.20;;;;;;4953538;28;20203;-80
2021/06/14 08:07:48;;;;;;;6.23;5.40;;;26.90;97.00;;;;;;4988817;28;20233;-80
2021/06/14 08:10:17;;;;;;;5.50;4.93;;;26.80;96.40;;;;;;4989591;28;20635;-80
2021/06/14 08:12:49;;;;;;;9.23;5.90;;;26.90;96.60;;;;;;4963188;28;20239;-81
2021/06/14 08:15:22;;;;;;;6.77;5.57;;;27.10;97.10;;;;;;4980919;28;20239;-81
2021/06/14 08:17:56;;;;;;;6.77;5.33;;;26.80;96.30;;;;;;4982576;28;20615;-81
2021/06/14 08:20:31;;;;;;;7.90;3.87;;;26.90;95.90;;;;;;4972622;28;20206;-80
2021/06/14 08:25:45;;;;;;;4.50;2.80;;;26.70;96.60;;;;;;4987175;28;20197;-80
2021/06/14 08:28:17;;;;;;;6.43;5.83;;;27.10;96.30;;;;;;4979113;28;20206;-81
2021/06/14 08:30:45;;;;;;;5.57;3.20;;;27.40;95.90;;;;;;5004619;28;20719;-81
2021/06/14 08:33:13;;;;;;;5.70;5.10;;;27.80;95.80;;;;;;4973769;28;20224;-81
2021/06/14 08:35:48;;;;;;;8.70;5.60;;;27.60;95.10;;;;;;4981540;28;20688;-81
2021/06/14 08:38:18;;;;;;;6.07;5.20;;;27.80;95.10;;;;;;4979956;28;20197;-82
2021/06/14 08:40:50;;;;;;;6.60;6.00;;;27.50;93.40;;;;;;4972527;28;20226;-82
2021/06/14 08:43:20;;;;;;;5.80;5.20;;;27.40;95.40;;;;;;4969020;28;20206;-81
2021/06/14 08:45:48;;;;;;;6.93;6.33;;;27.60;94.50;;;;;;4965641;28;20206;-82
2021/06/14 08:48:17;;;;;;;4.70;3.83;;;27.70;94.10;;;;;;4977312;28;20205;-81
2021/06/14 08:50:45;;;;;;;7.07;6.47;;;27.40;94.70;;;;;;4977713;28;20724;-81
2021/06/14 08:53:13;;;;;;;7.40;6.80;;;27.60;95.50;;;;;;4988282;28;20305;-82
2021/06/14 08:55:40;;;;;;;8.20;6.17;;;27.70;94.90;;;;;;4971187;28;20718;-81
2021/06/14 08:58:08;;;;;;;7.27;6.50;;;27.30;93.90;;;;;;4974863;28;20669;-81
2021/06/14 09:00:37;;;;;;;6.77;3.40;;;27.30;94.70;;;;;;4974091;28;20221;-80
2021/06/14 09:03:05;;;;;;;8.13;7.33;;;27.10;93.40;;;;;;4982705;28;20584;-80
2021/06/14 09:05:35;;;;;;;7.87;7.13;;;27.10;94.80;;;;;;4959630;28;20210;-81
2021/06/14 09:08:08;;;;;;;8.27;6.70;;;27.30;93.50;;;;;;4965079;28;20202;-81
2021/06/14 09:10:37;;;;;;;7.57;7.03;;;27.50;93.90;;;;;;4981238;28;20233;-82
2021/06/14 09:13:16;;;;;;;6.93;6.27;;;28.10;94.40;;;;;;4975480;28;20641;-81
2021/06/14 09:15:49;;;;;;;3.13;2.70;;;28.10;93.80;;;;;;4997242;28;20224;-81
2021/06/14 09:18:19;;;;;;;8.10;3.30;;;28.40;93.80;;;;;;4982485;28;20206;-82
2021/06/14 09:20:59;;;;;;;3.90;2.97;;;28.50;91.30;;;;;;4978568;28;20217;-81
2021/06/14 09:23:39;;;;;;;5.77;5.23;;;28.50;91.60;;;;;;4982310;28;20265;-82
2021/06/14 09:26:08;;;;;;;5.10;4.70;;;28.50;92.90;;;;;;4994766;28;20222;-81
2021/06/14 09:28:43;;;;;;;5.70;5.20;;;28.80;93.30;;;;;;4978470;28;20197;-82
2021/06/14 09:31:17;;;;;;;7.03;5.63;;;29.10;92.40;;;;;;5066063;23;20290;-81
2021/06/14 09:33:46;;;;;;;5.83;5.33;;;29.10;91.80;;;;;;5003887;28;20243;-81
2021/06/14 09:36:15;;;;;;;5.63;5.13;;;29.10;92.40;;;;;;4996423;28;20212;-81
2021/06/14 09:38:45;;;;;;;5.90;5.10;;;29.20;90.90;;;;;;5011719;28;20215;-81
2021/06/14 09:41:17;;;;;;;5.73;5.23;;;29.30;90.00;;;;;;5015796;28;20217;-81
2021/06/14 09:43:46;;;;;;;5.60;5.10;;;29.40;91.30;;;;;;5003087;28;20197;-81
2021/06/14 09:46:28;;;;;;;7.03;6.43;;;29.50;87.60;;;;;;5013659;28;20784;-81
2021/06/14 09:48:57;;;;;;;6.80;6.10;;;29.50;88.50;;;;;;5026533;28;20192;-80
2021/06/14 09:51:28;;;;;;;6.73;6.13;;;29.40;83.40;;;;;;5000596;28;20228;-81
2021/06/14 09:53:56;;;;;;;6.30;5.70;;;29.20;86.20;;;;;;5017649;28;20224;-80
2021/06/14 09:56:29;;;;;;;6.10;5.50;;;29.40;89.40;;;;;;5017462;28;20287;-81
2021/06/14 09:58:59;;;;;;;6.93;5.53;;;29.60;85.90;;;;;;5000559;28;20671;-80
2021/06/14 10:01:35;;;;;;;6.90;6.30;;;29.50;83.50;;;;;;5000272;28;20299;-80
2021/06/14 10:04:05;;;;;;;6.50;5.97;;;29.50;83.40;;;;;;5001156;28;20200;-82
2021/06/14 10:06:38;;;;;;;7.10;6.40;;;29.20;83.50;;;;;;4999721;28;20208;-82
2021/06/14 10:09:12;;;;;;;7.00;6.30;;;29.40;84.20;;;;;;5019756;28;20203;-83
2021/06/14 10:11:40;;;;;;;5.47;5.07;;;29.50;81.00;;;;;;5033802;28;20230;-81
2021/06/14 10:14:10;;;;;;;5.83;5.40;;;29.20;81.90;;;;;;5017268;28;20213;-82
2021/06/14 10:16:42;;;;;;;5.83;5.40;;;29.00;79.90;;;;;;5017337;28;20573;-82
2021/06/14 10:19:11;;;;;;;6.73;3.07;;;28.30;81.90;;;;;;4999290;28;20196;-82
2021/06/14 10:21:40;;;;;;;4.33;2.47;;;27.90;81.90;;;;;;5015137;28;20251;-82
2021/06/14 10:24:10;;;;;;;3.67;2.80;;;28.10;84.40;;;;;;4999416;28;20196;-82
2021/06/14 10:26:39;;;;;;;7.27;6.77;;;28.50;85.80;;;;;;5027958;28;20684;-82
2021/06/14 10:29:07;;;;;;;5.33;4.83;;;28.60;80.40;;;;;;4998856;28;20210;-79
2021/06/14 10:31:36;;;;;;;4.80;2.43;;;28.60;81.30;;;;;;5028802;22;20272;-80
2021/06/14 10:34:05;;;;;;;6.37;5.77;;;28.40;79.80;;;;;;5039838;28;20281;-79
2021/06/14 10:36:37;;;;;;;6.03;5.60;;;28.10;82.40;;;;;;5041351;28;20235;-82
2021/06/14 10:39:09;;;;;;;5.93;5.50;;;28.10;84.00;;;;;;5073478;28;20195;-82
2021/06/14 10:41:37;;;;;;;6.27;5.67;;;28.20;81.50;;;;;;5051511;28;20211;-79
2021/06/14 10:44:06;;;;;;;6.33;5.90;;;28.20;80.00;;;;;;5050716;28;20203;-79
2021/06/14 10:46:34;;;;;;;6.10;5.70;;;28.50;87.20;;;;;;5052617;28;20195;-79
2021/06/14 10:49:02;;;;;;;6.93;6.33;;;28.70;84.50;;;;;;5041197;28;20550;-79
2021/06/14 10:51:32;;;;;;;6.10;5.50;;;28.10;80.10;;;;;;5046357;28;20230;-82
2021/06/14 10:54:05;;;;;;;6.23;5.63;;;27.50;80.10;;;;;;5050858;28;20258;-81
2021/06/14 10:56:33;;;;;;;5.93;5.43;;;27.30;82.40;;;;;;5050064;28;20211;-82
2021/06/14 10:59:01;;;;;;;6.43;5.83;;;27.20;79.40;;;;;;5030335;28;20199;-81
2021/06/14 11:01:33;;;;;;;6.03;5.47;;;27.20;82.20;;;;;;5020859;28;20323;-80
2021/06/14 11:04:01;;;;;;;5.60;5.13;;;26.90;80.70;;;;;;5050587;28;20615;-81
2021/06/14 11:06:31;;;;;;;6.03;5.50;;;27.00;81.30;;;;;;5031298;28;20663;-79
2021/06/14 11:09:08;;;;;;;6.00;5.50;;;27.30;84.20;;;;;;5050847;28;20187;-82
2021/06/14 11:11:46;;;;;;;6.20;5.70;;;27.40;82.30;;;;;;5076507;22;20225;-76
2021/06/14 11:14:15;;;;;;;6.23;5.73;;;27.40;84.10;;;;;;5044262;28;20218;-76
2021/06/14 11:16:42;;;;;;;6.60;6.10;;;27.30;79.40;;;;;;5053131;28;20187;-77
2021/06/14 11:19:11;;;;;;;6.00;5.60;;;27.00;82.00;;;;;;5048539;28;20219;-76
2021/06/14 11:21:40;;;;;;;6.53;6.00;;;27.20;82.30;;;;;;5041890;28;20654;-77
2021/06/14 11:24:10;;;;;;;6.20;5.70;;;27.10;81.30;;;;;;5027220;28;20678;-76
2021/06/14 11:26:38;;;;;;;6.17;5.70;;;26.90;79.70;;;;;;5026891;28;20210;-77
2021/06/14 11:29:17;;;;;;;6.63;6.03;;;26.90;81.90;;;;;;5041203;28;20283;-76
2021/06/14 11:31:56;;;;;;;6.77;6.27;;;26.90;82.10;;;;;;5027160;28;20257;-76
2021/06/14 11:34:23;;;;;;;6.30;5.80;;;27.00;82.60;;;;;;5043312;28;20215;-77
2021/06/14 11:36:57;;;;;;;6.60;5.93;;;27.00;87.70;;;;;;5040178;28;20191;-76
2021/06/14 11:39:26;;;;;;;8.23;6.50;;;27.10;85.50;;;;;;5038227;28;20257;-76
2021/06/14 11:41:54;;;;;;;6.67;6.00;;;27.00;87.80;;;;;;5039927;28;20238;-77
2021/06/14 11:44:28;;;;;;;6.30;5.90;;;27.20;87.60;;;;;;5028049;28;20621;-77
2021/06/14 11:46:57;;;;;;;7.00;6.40;;;27.20;85.90;;;;;;5024500;28;20192;-76
2021/06/14 11:49:32;;;;;;;7.67;6.90;;;27.20;85.00;;;;;;5041314;28;20199;-76
2021/06/14 11:52:00;;;;;;;7.10;6.50;;;27.00;82.70;;;;;;5041419;28;20223;-76
2021/06/14 11:54:27;;;;;;;6.53;6.13;;;26.90;83.20;;;;;;5042118;28;20223;-76
2021/06/14 11:57:00;;;;;;;7.03;6.53;;;26.90;81.00;;;;;;5029464;28;20194;-77
2021/06/14 11:59:32;;;;;;;6.93;6.40;;;26.90;85.20;;;;;;5042534;28;20202;-77
2021/06/14 12:02:01;;;;;;;6.60;6.20;;;26.50;82.60;;;;;;5035355;28;20226;-77
2021/06/14 12:04:28;;;;;;;7.10;6.60;;;26.50;83.70;;;;;;5027711;28;20203;-76
2021/06/14 12:06:56;;;;;;;7.00;6.50;;;26.60;83.50;;;;;;5040052;28;20199;-77
2021/06/14 12:09:27;;;;;;;6.90;6.40;;;26.60;83.10;;;;;;5040293;28;20245;-76
2021/06/14 12:11:59;;;;;;;6.87;6.37;;;26.80;84.00;;;;;;5023040;28;20243;-77
2021/06/14 12:14:26;;;;;;;7.00;6.40;;;26.70;84.30;;;;;;5040915;28;20273;-76
2021/06/14 12:16:58;;;;;;;6.50;6.00;;;26.70;86.90;;;;;;5041955;28;20561;-76
2021/06/14 12:19:28;;;;;;;6.80;6.30;;;26.70;87.30;;;;;;5040209;28;20195;-76
2021/06/14 12:21:56;;;;;;;6.63;6.13;;;26.80;89.60;;;;;;5026389;28;20226;-76
2021/06/14 12:24:25;;;;;;;7.70;7.00;;;26.90;89.90;;;;;;5043937;28;20256;-76
2021/06/14 12:27:02;;;;;;;6.90;6.40;;;26.80;88.60;;;;;;5027748;28;20214;-76
2021/06/14 12:29:29;;;;;;;7.57;6.87;;;26.60;87.40;;;;;;5026413;28;20207;-77
2021/06/14 12:32:02;;;;;;;6.93;6.33;;;26.30;88.90;;;;;;5030286;28;20227;-77
2021/06/14 12:34:29;;;;;;;7.13;6.33;;;26.50;90.70;;;;;;5033550;28;20212;-76
2021/06/14 12:37:01;;;;;;;7.40;6.80;;;26.50;89.20;;;;;;5038158;28;20199;-77
2021/06/14 12:39:29;;;;;;;7.10;6.50;;;26.50;90.30;;;;;;5039609;28;20199;-76
2021/06/14 12:41:55;;;;;;;7.80;7.07;;;26.70;88.20;;;;;;5024602;28;20655;-77
2021/06/14 12:44:22;;;;;;;8.00;7.20;;;26.70;90.30;;;;;;5040391;28;20203;-77
2021/06/14 12:46:49;;;;;;;8.07;7.37;;;26.70;88.40;;;;;;5040536;28;20660;-76
2021/06/14 12:49:22;;;;;;;7.00;6.47;;;26.70;90.60;;;;;;5042853;28;20201;-76
2021/06/14 12:51:50;;;;;;;7.00;6.50;;;26.60;90.30;;;;;;5013395;28;20256;-77
2021/06/14 12:54:17;;;;;;;7.83;6.77;;;26.50;89.00;;;;;;5035927;28;20247;-76
2021/06/14 12:56:53;;;;;;;8.60;7.00;;;26.40;88.80;;;;;;5030851;28;20203;-76
2021/06/14 12:59:20;;;;;;;7.60;6.80;;;26.30;90.20;;;;;;5027869;28;20662;-76
2021/06/14 13:01:47;;;;;;;8.00;6.80;;;26.30;90.10;;;;;;5040717;28;20223;-76
2021/06/14 13:04:14;;;;;;;6.63;6.13;;;26.30;90.20;;;;;;5025361;28;20249;-76
2021/06/14 13:06:42;;;;;;;6.40;5.80;;;26.40;88.40;;;;;;5039746;28;20191;-76
2021/06/14 13:09:09;;;;;;;6.80;6.00;;;26.40;88.60;;;;;;5041167;28;20233;-77